Time;durP1;ratioP1;P1;durP2;ratioP2;P2;SDS_P1;SDS_P2;PMS_P1;PMS_P2;Temp;Humidity;BMP_temperature;BMP_pressure;BME280_temperature;BME280_humidity;BME280_pressure;Samples;Min_cycle;Max_cycle;Signal;HPM_P1;HPM_P2
2022/02/03 00:00:32;;;;;;;12.13;6.97;;;5.70;99.90;;;;;;1778889;80;21164;-78
2022/02/03 00:03:49;;;;;;;11.95;6.72;;;5.70;99.90;;;;;;1785833;79;21550;-78
2022/02/03 00:05:44;;;;;;;10.35;7.62;;;5.70;99.90;;;;;;1771861;80;21565;-78
2022/02/03 00:08:10;;;;;;;22.93;7.87;;;5.80;99.90;;;;;;1799489;78;21182;-78
2022/02/03 00:10:44;;;;;;;11.57;7.03;;;5.70;99.90;;;;;;1775267;79;21082;-78
2022/02/03 00:24:21;;;;;;;13.10;7.58;;;5.70;99.90;;;;;;1804702;78;21140;-78
2022/02/03 00:27:08;;;;;;;15.72;8.63;;;5.70;99.90;;;;;;1815116;78;21536;-78
2022/02/03 00:35:28;;;;;;;12.73;7.78;;;5.80;99.90;;;;;;1765130;80;21152;-79
2022/02/03 00:37:58;;;;;;;10.50;7.08;;;5.80;99.90;;;;;;1768120;78;21540;-78
2022/02/03 00:48:31;;;;;;;13.00;7.67;;;5.80;99.90;;;;;;1768272;81;21230;-79
2022/02/03 00:50:53;;;;;;;12.78;8.15;;;5.80;99.90;;;;;;1804054;79;21487;-78
2022/02/03 00:53:23;;;;;;;9.88;6.78;;;5.90;99.90;;;;;;1808071;79;21238;-78
2022/02/03 00:55:51;;;;;;;9.33;6.90;;;5.80;99.90;;;;;;1768611;80;21207;-78
2022/02/03 00:58:18;;;;;;;10.93;7.58;;;5.80;99.90;;;;;;1800449;79;21260;-79
2022/02/03 01:00:49;;;;;;;14.98;7.97;;;5.70;99.90;;;;;;1767531;80;21092;-79
2022/02/03 01:03:16;;;;;;;10.03;7.15;;;5.70;99.90;;;;;;1794825;80;21033;-78
2022/02/03 01:05:46;;;;;;;12.43;7.70;;;5.80;99.90;;;;;;1776217;79;21519;-77
2022/02/03 01:08:18;;;;;;;13.55;7.83;;;5.80;99.90;;;;;;1789742;80;21056;-79
2022/02/03 01:10:51;;;;;;;13.58;8.50;;;5.70;99.90;;;;;;1800873;80;21158;-79
2022/02/03 01:13:46;;;;;;;11.95;7.58;;;5.80;99.90;;;;;;1773092;80;21138;-78
2022/02/03 01:16:03;;;;;;;13.53;8.20;;;5.80;99.90;;;;;;1784937;80;21081;-78
2022/02/03 01:18:55;;;;;;;12.50;8.58;;;5.80;99.90;;;;;;1779397;79;21098;-79
2022/02/03 01:35:03;;;;;;;16.23;9.58;;;5.80;99.90;;;;;;1773995;80;21185;-78
2022/02/03 01:45:55;;;;;;;14.90;9.13;;;5.80;99.90;;;;;;1772921;79;21179;-78
2022/02/03 01:48:19;;;;;;;12.80;9.10;;;5.70;99.90;;;;;;1786528;80;21090;-77
2022/02/03 01:53:21;;;;;;;12.68;9.05;;;5.90;99.90;;;;;;1812337;77;21268;-79
2022/02/03 01:55:51;;;;;;;20.37;9.85;;;5.90;99.90;;;;;;1803727;78;21087;-78
2022/02/03 01:58:28;;;;;;;16.97;9.85;;;5.90;99.90;;;;;;1767586;80;21262;-78
2022/02/03 02:01:02;;;;;;;16.70;10.43;;;5.80;99.90;;;;;;1768394;79;21121;-78
2022/02/03 02:03:44;;;;;;;18.80;11.08;;;5.80;99.90;;;;;;1799948;78;21543;-79
2022/02/03 02:06:29;;;;;;;12.05;8.63;;;5.70;99.90;;;;;;1826262;77;21095;-78
2022/02/03 02:09:04;;;;;;;12.65;9.95;;;5.80;99.90;;;;;;1814208;77;21165;-78
2022/02/03 02:11:50;;;;;;;17.77;11.63;;;5.90;99.90;;;;;;1769871;80;21586;-78
2022/02/03 02:17:25;;;;;;;17.57;10.88;;;5.80;99.90;;;;;;1771351;80;21419;-79
2022/02/03 02:19:53;;;;;;;15.58;11.10;;;5.80;99.90;;;;;;1792941;78;21168;-79
2022/02/03 02:38:58;;;;;;;18.02;10.55;;;5.80;99.90;;;;;;1806761;77;21174;-80
2022/02/03 02:44:18;;;;;;;11.97;8.93;;;5.80;99.90;;;;;;1800692;78;21269;-77
2022/02/03 02:46:51;;;;;;;16.67;9.23;;;6.00;99.90;;;;;;1800176;78;21112;-78
2022/02/03 02:49:40;;;;;;;12.03;9.03;;;5.90;99.90;;;;;;1804618;77;21099;-77
2022/02/03 02:52:10;;;;;;;15.35;10.40;;;5.80;99.90;;;;;;1808531;77;21165;-79
2022/02/03 02:55:02;;;;;;;18.32;10.25;;;5.90;99.90;;;;;;1779631;79;21088;-78
2022/02/03 03:00:38;;;;;;;14.40;9.43;;;6.00;99.90;;;;;;1812626;77;21119;-79
2022/02/03 03:03:23;;;;;;;14.90;9.85;;;5.90;99.90;;;;;;1763245;80;21189;-79
2022/02/03 03:35:48;;;;;;;18.98;11.73;;;5.90;99.90;;;;;;1775143;80;21083;-79
2022/02/03 03:38:15;;;;;;;19.50;12.07;;;6.00;99.90;;;;;;1778893;79;21187;-79
2022/02/03 03:40:45;;;;;;;15.72;11.80;;;6.00;99.90;;;;;;1822287;77;21164;-80
2022/02/03 03:43:14;;;;;;;23.67;12.27;;;6.00;99.90;;;;;;1818672;77;21255;-79
2022/02/03 03:45:47;;;;;;;15.43;10.55;;;6.00;99.90;;;;;;1821502;78;21188;-78
2022/02/03 03:48:17;;;;;;;19.42;12.15;;;6.00;99.90;;;;;;1779327;80;21096;-79
2022/02/03 03:50:51;;;;;;;18.32;11.73;;;6.10;99.90;;;;;;1789871;80;21136;-79
2022/02/03 03:53:28;;;;;;;18.35;11.60;;;6.10;99.90;;;;;;1774295;79;21483;-79
2022/02/03 03:56:07;;;;;;;16.82;11.68;;;6.20;99.90;;;;;;1784299;78;21150;-78
2022/02/03 04:42:02;;;;;;;18.07;11.68;;;6.00;99.90;;;;;;1804837;79;21217;-78
2022/02/03 05:02:59;;;;;;;19.48;12.00;;;6.10;99.90;;;;;;1784145;78;21134;-77
2022/02/03 05:08:10;;;;;;;19.15;11.20;;;6.00;99.90;;;;;;1779781;79;21453;-79
2022/02/03 05:11:00;;;;;;;15.35;10.72;;;5.90;99.90;;;;;;1813961;77;21096;-78
2022/02/03 05:23:01;;;;;;;17.57;9.53;;;6.00;99.90;;;;;;1779252;79;21510;-80
2022/02/03 05:25:29;;;;;;;13.13;10.40;;;5.80;99.90;;;;;;1796606;78;21166;-79
2022/02/03 05:42:52;;;;;;;16.23;10.48;;;5.80;99.90;;;;;;1799562;77;21539;-77
2022/02/03 05:48:25;;;;;;;16.77;11.00;;;5.70;99.90;;;;;;1807693;78;21080;-76
2022/02/03 06:17:48;;;;;;;15.25;10.03;;;5.40;99.90;;;;;;1778311;80;21095;-78
2022/02/03 06:27:49;;;;;;;14.78;10.65;;;5.40;99.90;;;;;;1810820;77;21116;-74
2022/02/03 06:30:20;;;;;;;13.93;10.72;;;5.40;99.90;;;;;;1803024;78;21574;-76
2022/02/03 06:32:47;;;;;;;14.35;10.78;;;5.50;99.90;;;;;;1768814;81;21134;-75
2022/02/03 06:35:17;;;;;;;14.75;10.90;;;5.40;99.90;;;;;;1806933;79;21502;-75
2022/02/03 06:37:47;;;;;;;14.65;12.23;;;5.40;99.90;;;;;;1814422;77;21750;-78
2022/02/03 06:40:13;;;;;;;27.48;14.35;;;5.60;99.90;;;;;;1804332;78;21103;-78
2022/02/03 06:42:41;;;;;;;19.90;13.55;;;5.70;99.90;;;;;;1781867;80;21471;-77
2022/02/03 06:45:22;;;;;;;19.40;13.18;;;5.70;99.90;;;;;;1820009;77;21527;-77
2022/02/03 06:50:21;;;;;;;18.30;12.25;;;5.70;99.90;;;;;;1817733;78;21150;-76
2022/02/03 06:53:00;;;;;;;16.42;11.12;;;5.60;99.90;;;;;;1801878;79;21472;-76
2022/02/03 06:55:39;;;;;;;20.85;11.60;;;5.70;99.90;;;;;;1768688;80;21134;-78
2022/02/03 06:58:05;;;;;;;14.93;11.08;;;5.80;99.90;;;;;;1800531;78;21127;-75
2022/02/03 07:00:34;;;;;;;18.57;12.00;;;5.80;99.90;;;;;;1782686;79;21074;-76
2022/02/03 07:03:00;;;;;;;15.58;10.85;;;5.90;99.90;;;;;;1777406;78;21119;-78
2022/02/03 07:05:27;;;;;;;14.18;11.78;;;5.90;99.90;;;;;;1801148;78;21488;-77
2022/02/03 07:07:55;;;;;;;18.85;10.63;;;6.00;99.90;;;;;;1766603;80;21174;-76
2022/02/03 07:10:23;;;;;;;11.80;10.08;;;5.90;99.90;;;;;;1781446;79;21149;-75
2022/02/03 07:12:50;;;;;;;12.98;9.60;;;6.00;99.90;;;;;;1802766;78;21143;-75
2022/02/03 07:15:18;;;;;;;12.95;10.23;;;6.10;99.90;;;;;;1816995;78;21468;-75
2022/02/03 07:17:45;;;;;;;20.40;11.03;;;6.10;99.90;;;;;;1768265;79;21194;-75
2022/02/03 07:20:14;;;;;;;17.02;11.20;;;6.20;99.90;;;;;;1780748;80;21091;-75
2022/02/03 07:22:42;;;;;;;15.60;9.90;;;6.20;99.90;;;;;;1794556;80;21096;-75
2022/02/03 07:25:10;;;;;;;15.35;11.68;;;6.20;99.90;;;;;;1767167;81;21107;-75
2022/02/03 07:27:37;;;;;;;18.32;11.83;;;6.30;99.90;;;;;;1800566;79;21076;-75
2022/02/03 07:30:06;;;;;;;18.48;12.15;;;6.40;99.90;;;;;;1821041;77;21174;-74
2022/02/03 07:32:33;;;;;;;16.10;11.03;;;6.40;99.90;;;;;;1821018;78;21196;-75
2022/02/03 07:35:00;;;;;;;14.23;11.08;;;6.40;99.90;;;;;;1813088;77;21076;-74
2022/02/03 07:37:28;;;;;;;12.98;10.53;;;6.40;99.90;;;;;;1806785;79;21178;-74
2022/02/03 07:39:56;;;;;;;18.35;11.03;;;6.50;99.90;;;;;;1806750;78;21155;-74
2022/02/03 07:42:24;;;;;;;14.38;9.95;;;6.70;99.90;;;;;;1821110;78;21579;-74
2022/02/03 07:44:52;;;;;;;17.50;11.38;;;6.60;99.90;;;;;;1814955;77;21154;-74
2022/02/03 07:47:19;;;;;;;22.65;11.85;;;6.60;99.90;;;;;;1784556;79;21103;-74
2022/02/03 07:49:46;;;;;;;15.05;10.35;;;6.60;99.90;;;;;;1779079;79;21494;-75
2022/02/03 07:52:14;;;;;;;25.15;11.45;;;6.70;99.90;;;;;;1785103;79;21089;-75
2022/02/03 07:54:42;;;;;;;22.67;12.88;;;6.70;99.90;;;;;;1775819;79;21173;-74
2022/02/03 07:57:09;;;;;;;17.42;11.70;;;6.80;99.90;;;;;;1781833;79;21115;-74
2022/02/03 07:59:37;;;;;;;18.35;12.25;;;6.90;99.90;;;;;;1801762;80;21566;-75
2022/02/03 08:02:04;;;;;;;14.98;11.18;;;6.70;99.90;;;;;;1767042;80;21087;-74
2022/02/03 08:04:33;;;;;;;14.98;9.78;;;6.90;99.90;;;;;;1807534;78;21118;-75
2022/02/03 08:07:01;;;;;;;16.30;11.45;;;6.90;99.90;;;;;;1821373;77;21099;-75
2022/02/03 08:09:40;;;;;;;19.17;11.00;;;6.90;99.90;;;;;;1821571;77;21092;-76
2022/02/03 08:12:01;;;;;;;19.57;11.33;;;6.90;99.90;;;;;;1801741;77;21542;-75
2022/02/03 08:14:37;;;;;;;26.73;11.55;;;6.90;99.90;;;;;;1775527;79;21161;-74
2022/02/03 08:17:08;;;;;;;15.83;11.88;;;6.70;99.90;;;;;;1785653;77;21177;-75
2022/02/03 08:22:23;;;;;;;14.95;11.30;;;6.80;99.90;;;;;;1766486;80;21116;-75
2022/02/03 08:24:49;;;;;;;13.50;10.53;;;6.80;99.90;;;;;;1787992;80;21170;-74
2022/02/03 08:32:35;;;;;;;18.07;10.95;;;7.00;99.90;;;;;;1820198;77;21095;-75
2022/02/03 08:37:42;;;;;;;13.93;10.15;;;7.20;99.90;;;;;;1803696;78;21110;-75
2022/02/03 08:40:13;;;;;;;14.35;10.68;;;7.30;99.90;;;;;;1773207;79;21118;-74
2022/02/03 08:42:40;;;;;;;15.53;10.90;;;7.20;99.90;;;;;;1774986;80;21079;-75
2022/02/03 08:45:08;;;;;;;14.23;9.93;;;7.30;99.90;;;;;;1801525;80;21162;-75
2022/02/03 08:47:35;;;;;;;16.12;9.63;;;7.30;99.90;;;;;;1801543;79;21076;-75
2022/02/03 08:50:03;;;;;;;15.45;10.25;;;7.40;99.90;;;;;;1766245;80;21080;-75
2022/02/03 08:52:42;;;;;;;18.30;9.83;;;7.40;99.90;;;;;;1799488;79;21118;-75
2022/02/03 08:55:12;;;;;;;16.27;9.65;;;7.60;99.90;;;;;;1774595;79;21565;-75
2022/02/03 08:58:05;;;;;;;14.05;8.75;;;7.60;99.90;;;;;;1801021;78;21088;-75
2022/02/03 09:00:37;;;;;;;13.78;9.50;;;7.60;99.90;;;;;;1796620;80;21154;-76
2022/02/03 09:34:33;;;;;;;13.78;9.23;;;8.30;99.90;;;;;;1801587;80;21088;-75
2022/02/03 09:35:57;;;;;;;17.45;9.63;;;8.40;99.90;;;;;;1764592;80;21095;-76
2022/02/03 09:40:58;;;;;;;19.45;9.85;;;8.40;99.90;;;;;;1806715;78;21092;-75
2022/02/03 09:59:39;;;;;;;4.87;3.27;;;9.40;99.90;;;;;;1732855;82;21253;-75
2022/02/03 10:02:09;;;;;;;7.47;3.20;;;9.50;99.90;;;;;;1734890;82;21430;-75
2022/02/03 10:04:46;;;;;;;5.37;3.30;;;9.40;99.90;;;;;;1758502;80;21092;-76
2022/02/03 10:07:20;;;;;;;4.55;2.80;;;9.60;99.90;;;;;;1768126;81;21095;-76
2022/02/03 10:09:48;;;;;;;3.50;2.70;;;9.90;99.90;;;;;;1799779;79;21522;-76
2022/02/03 10:12:16;;;;;;;3.35;2.70;;;10.00;99.90;;;;;;1808016;78;21195;-76
2022/02/03 10:14:47;;;;;;;3.77;2.67;;;9.90;99.90;;;;;;1775962;79;21083;-76
2022/02/03 10:17:18;;;;;;;3.75;2.30;;;9.70;99.90;;;;;;1801509;80;21550;-76
2022/02/03 10:19:48;;;;;;;3.72;2.83;;;9.70;99.90;;;;;;1773090;79;21176;-77
2022/02/03 10:22:18;;;;;;;3.95;3.00;;;9.90;99.90;;;;;;1787802;79;21094;-75
2022/02/03 10:24:49;;;;;;;3.45;3.15;;;10.00;99.90;;;;;;1809778;77;21112;-75
2022/02/03 10:27:25;;;;;;;4.55;3.42;;;10.00;99.90;;;;;;1804501;78;21116;-74
2022/02/03 10:29:50;;;;;;;5.17;4.00;;;10.00;99.90;;;;;;1772693;80;21119;-74
2022/02/03 10:32:19;;;;;;;5.22;3.80;;;10.30;99.90;;;;;;1800878;80;21111;-74
2022/02/03 10:34:46;;;;;;;4.40;3.55;;;10.20;99.90;;;;;;1770441;80;21174;-74
2022/02/03 10:37:40;;;;;;;4.75;3.50;;;10.40;99.90;;;;;;1776584;79;21511;-74
2022/02/03 10:40:21;;;;;;;4.15;3.30;;;10.40;99.90;;;;;;1822769;77;21143;-76
2022/02/03 10:51:10;;;;;;;4.12;3.50;;;11.00;99.90;;;;;;1774975;79;21510;-75
2022/02/03 10:53:43;;;;;;;4.95;3.60;;;11.30;99.90;;;;;;1773091;79;21105;-75
2022/02/03 10:56:26;;;;;;;4.05;3.42;;;11.50;99.90;;;;;;1772391;80;21080;-75
2022/02/03 11:06:59;;;;;;;6.50;2.87;;;11.80;99.90;;;;;;1805055;79;21100;-75
2022/02/03 11:09:25;;;;;;;3.22;2.52;;;11.40;99.90;;;;;;1773536;79;21113;-76
2022/02/03 11:11:56;;;;;;;4.15;3.50;;;11.10;99.90;;;;;;1776526;79;21256;-76
2022/02/03 11:14:21;;;;;;;5.65;2.80;;;11.30;99.90;;;;;;1803092;78;21092;-75
2022/02/03 11:16:48;;;;;;;3.25;2.95;;;11.20;99.90;;;;;;1807062;78;21488;-77
2022/02/03 11:19:16;;;;;;;3.87;2.55;;;10.90;99.90;;;;;;1810925;78;21163;-75
2022/02/03 11:21:49;;;;;;;2.62;2.42;;;10.80;99.90;;;;;;1811098;78;21649;-76
2022/02/03 11:24:22;;;;;;;3.15;2.50;;;10.70;99.90;;;;;;1807871;77;21081;-75
2022/02/03 11:32:39;;;;;;;2.58;1.70;;;10.70;99.90;;;;;;1768560;79;21107;-75
2022/02/03 11:35:43;;;;;;;3.90;1.92;;;10.70;99.90;;;;;;1772955;79;21084;-75
2022/02/03 11:40:35;;;;;;;4.58;2.58;;;10.70;99.90;;;;;;1804366;79;21075;-76
2022/02/03 11:59:16;;;;;;;1.35;1.25;;;10.70;99.90;;;;;;1766625;80;21096;-76
2022/02/03 12:01:45;;;;;;;1.80;1.60;;;10.60;99.90;;;;;;1799733;80;21080;-75
2022/02/03 12:04:42;;;;;;;1.20;1.20;;;10.70;99.90;;;;;;1800471;79;21584;-75
2022/02/03 12:07:25;;;;;;;1.20;1.10;;;10.90;99.90;;;;;;1768245;79;21110;-74
2022/02/03 12:18:07;;;;;;;0.80;0.68;;;11.30;99.90;;;;;;1766839;80;21126;-76
2022/02/03 12:20:59;;;;;;;1.37;1.27;;;11.20;99.90;;;;;;1800976;78;21458;-77
2022/02/03 12:24:13;;;;;;;3.90;0.90;;;11.50;99.90;;;;;;1769527;80;21115;-76
2022/02/03 12:26:13;;;;;;;0.70;0.70;;;11.60;99.90;;;;;;1793879;77;21691;-75
2022/02/03 12:28:49;;;;;;;1.17;0.70;;;11.70;99.90;;;;;;1782751;78;21123;-76
2022/02/03 12:31:26;;;;;;;3.25;0.88;;;11.60;99.90;;;;;;1766119;80;21508;-77
2022/02/03 12:39:05;;;;;;;1.60;1.50;;;11.50;99.90;;;;;;1799437;79;21545;-75
2022/02/03 12:42:00;;;;;;;0.80;0.70;;;11.60;99.90;;;;;;1802394;78;21174;-76
2022/02/03 12:44:01;;;;;;;2.50;0.80;;;11.60;99.90;;;;;;1766393;79;21106;-76
2022/02/03 12:46:27;;;;;;;0.70;0.70;;;11.50;99.90;;;;;;1779751;80;21176;-76
2022/02/03 12:48:56;;;;;;;1.50;1.02;;;11.30;99.90;;;;;;1813742;78;21075;-76
2022/02/03 12:51:23;;;;;;;1.20;0.80;;;11.50;99.90;;;;;;1818699;78;21072;-76
2022/02/03 12:53:51;;;;;;;5.67;1.10;;;11.60;99.90;;;;;;1768412;81;21480;-76
2022/02/03 12:56:28;;;;;;;4.05;1.10;;;11.60;99.90;;;;;;1811237;77;21499;-77
2022/02/03 12:59:01;;;;;;;1.60;1.00;;;11.90;99.90;;;;;;1811107;77;21112;-75
2022/02/03 13:01:32;;;;;;;2.10;0.78;;;12.00;99.90;;;;;;1784539;79;21306;-77
2022/02/03 13:03:58;;;;;;;1.85;1.17;;;11.80;99.90;;;;;;1776905;80;21193;-77
2022/02/03 13:06:28;;;;;;;0.70;0.70;;;12.10;99.90;;;;;;1809051;77;21477;-76
2022/02/03 13:09:00;;;;;;;5.47;0.90;;;11.80;99.90;;;;;;1774248;80;21119;-77
2022/02/03 13:17:10;;;;;;;4.60;1.07;;;12.10;99.90;;;;;;1817108;77;21083;-78
2022/02/03 13:19:44;;;;;;;1.70;1.00;;;12.00;99.90;;;;;;1801404;78;21100;-76
2022/02/03 13:25:02;;;;;;;1.75;0.78;;;11.60;99.90;;;;;;1808154;77;21486;-77
2022/02/03 13:27:21;;;;;;;0.78;0.78;;;11.50;99.90;;;;;;1773198;80;21117;-77
2022/02/03 13:30:08;;;;;;;0.72;0.72;;;11.30;99.90;;;;;;1798760;80;21519;-78
2022/02/03 13:32:15;;;;;;;4.47;0.98;;;11.20;99.90;;;;;;1761792;80;21582;-78
2022/02/03 13:34:59;;;;;;;1.17;1.07;;;11.20;99.90;;;;;;1797538;79;21496;-75
2022/02/03 13:37:29;;;;;;;1.00;1.00;;;11.30;99.90;;;;;;1804521;77;21169;-76
2022/02/03 13:40:10;;;;;;;2.17;1.20;;;11.30;99.90;;;;;;1811048;77;21116;-78
2022/02/03 13:42:46;;;;;;;1.45;1.20;;;11.20;99.90;;;;;;1839493;76;21133;-77
2022/02/03 13:45:18;;;;;;;1.82;0.85;;;11.30;99.90;;;;;;1858609;76;21087;-79
2022/02/03 13:47:41;;;;;;;0.93;0.82;;;11.50;99.90;;;;;;1856980;76;21065;-76
2022/02/03 13:50:22;;;;;;;1.50;1.10;;;11.50;99.90;;;;;;1859652;76;21167;-76
2022/02/03 14:20:47;;;;;;;3.90;2.60;;;12.30;99.90;;;;;;1827156;78;21230;-75
2022/02/03 14:28:35;;;;;;;4.08;1.10;;;12.30;99.90;;;;;;1841750;78;21089;-77
2022/02/03 14:31:05;;;;;;;2.72;1.10;;;12.00;99.90;;;;;;1841783;78;21077;-76
2022/02/03 14:33:35;;;;;;;1.27;1.20;;;11.90;99.90;;;;;;1841691;77;21438;-76
2022/02/03 14:36:14;;;;;;;1.25;0.90;;;11.90;99.90;;;;;;1854913;77;21174;-75
2022/02/03 14:38:33;;;;;;;3.22;1.10;;;11.60;99.90;;;;;;1840083;78;21063;-76
2022/02/03 14:41:15;;;;;;;1.82;1.02;;;11.40;99.90;;;;;;1841122;77;21524;-77
2022/02/03 14:43:30;;;;;;;4.62;1.30;;;11.30;99.90;;;;;;1840190;77;21064;-77
2022/02/03 14:46:00;;;;;;;9.10;1.25;;;11.30;99.90;;;;;;1841387;78;21048;-77
2022/02/03 14:48:26;;;;;;;1.20;1.10;;;11.30;99.90;;;;;;1841449;77;21042;-77
2022/02/03 14:50:59;;;;;;;1.87;1.10;;;11.20;99.90;;;;;;1844762;77;21096;-76
2022/02/03 14:53:48;;;;;;;1.30;1.20;;;11.10;99.90;;;;;;1841456;77;21250;-77
2022/02/03 14:58:43;;;;;;;1.35;1.00;;;11.10;99.90;;;;;;1853457;77;21506;-78
2022/02/03 15:01:13;;;;;;;1.30;1.20;;;10.80;99.90;;;;;;1841538;78;21037;-78
2022/02/03 15:03:41;;;;;;;1.12;1.02;;;10.80;99.90;;;;;;1841646;78;21076;-76
2022/02/03 15:06:11;;;;;;;2.27;1.20;;;10.80;99.90;;;;;;1841933;78;21492;-76
2022/02/03 15:11:13;;;;;;;4.95;2.20;;;10.80;99.90;;;;;;1830426;78;21422;-75
2022/02/03 15:13:41;;;;;;;1.67;1.22;;;10.70;99.90;;;;;;1841558;77;21065;-76
2022/02/03 15:16:09;;;;;;;5.33;1.40;;;10.60;99.90;;;;;;1830693;78;21069;-77
2022/02/03 15:18:37;;;;;;;7.75;1.35;;;10.60;99.90;;;;;;1830232;78;21538;-77
2022/02/03 15:21:07;;;;;;;7.35;1.45;;;10.60;99.90;;;;;;1841762;78;21513;-77
2022/02/03 15:23:34;;;;;;;2.42;1.45;;;10.60;99.90;;;;;;1842033;77;21119;-77
2022/02/03 15:26:02;;;;;;;3.75;1.50;;;10.60;99.90;;;;;;1842053;78;21045;-77
2022/02/03 15:28:29;;;;;;;2.37;1.72;;;10.50;99.90;;;;;;1841812;78;21023;-77
2022/02/03 15:30:57;;;;;;;4.58;1.62;;;10.50;99.90;;;;;;1841797;78;21052;-77
2022/02/03 15:33:27;;;;;;;2.75;1.37;;;10.50;99.90;;;;;;1841708;77;21084;-77
2022/02/03 15:35:57;;;;;;;2.20;1.47;;;10.50;99.90;;;;;;1841623;77;21453;-77
2022/02/03 15:38:23;;;;;;;1.57;1.25;;;10.30;99.90;;;;;;1841453;77;21050;-77
2022/02/03 15:40:53;;;;;;;3.75;1.92;;;10.40;99.90;;;;;;1841687;78;21131;-76
2022/02/03 15:43:37;;;;;;;5.08;1.30;;;10.40;99.90;;;;;;1841601;77;21068;-76
2022/02/03 15:45:54;;;;;;;1.85;1.37;;;10.40;99.90;;;;;;1874074;76;21518;-76
2022/02/03 15:51:13;;;;;;;1.80;1.20;;;10.40;99.90;;;;;;1878244;76;21462;-77
2022/02/03 16:04:23;;;;;;;5.33;1.50;;;10.00;99.90;;;;;;1874114;75;21066;-76
2022/02/03 16:17:49;;;;;;;3.87;1.25;;;9.50;99.90;;;;;;1872393;77;21127;-78
2022/02/03 16:20:12;;;;;;;1.82;1.70;;;9.30;99.90;;;;;;1874301;76;21454;-77
2022/02/03 16:22:47;;;;;;;5.93;2.60;;;9.20;99.90;;;;;;1877541;76;21124;-77
2022/02/03 16:55:00;;;;;;;4.37;2.87;;;8.50;99.90;;;;;;1878080;76;21128;-76
2022/02/03 16:57:27;;;;;;;7.37;2.67;;;8.50;99.90;;;;;;1877914;76;21113;-75
2022/02/03 17:00:04;;;;;;;14.60;3.22;;;8.50;99.90;;;;;;1877997;76;21497;-77
2022/02/03 17:02:27;;;;;;;7.97;3.08;;;8.50;99.90;;;;;;1877239;76;21560;-77
2022/02/03 17:04:56;;;;;;;5.53;2.92;;;8.40;99.90;;;;;;1878025;76;21046;-77
2022/02/03 17:07:23;;;;;;;6.97;3.05;;;8.40;99.90;;;;;;1877964;76;21137;-76
2022/02/03 17:09:55;;;;;;;4.22;2.47;;;8.30;99.90;;;;;;1878251;76;21039;-76
2022/02/03 17:12:22;;;;;;;5.20;2.98;;;8.20;99.90;;;;;;1877996;76;21108;-77
2022/02/03 17:14:49;;;;;;;9.33;3.05;;;8.20;99.90;;;;;;1878025;76;21088;-76
2022/02/03 17:17:19;;;;;;;7.10;2.92;;;8.10;99.90;;;;;;1878051;76;21167;-77
2022/02/03 17:19:46;;;;;;;5.47;3.17;;;8.10;99.90;;;;;;1877704;76;21454;-76
2022/02/03 17:22:15;;;;;;;8.03;3.33;;;8.20;99.90;;;;;;1877984;76;21062;-76
2022/02/03 17:24:51;;;;;;;6.17;3.22;;;8.20;99.90;;;;;;1877957;76;21505;-75
2022/02/03 17:27:22;;;;;;;6.78;3.02;;;8.20;99.90;;;;;;1876783;76;21140;-76
2022/02/03 18:03:04;;;;;;;4.00;2.77;;;7.90;99.90;;;;;;1878111;76;21124;-75
2022/02/03 18:08:33;;;;;;;5.97;3.52;;;7.80;99.90;;;;;;1856639;76;21065;-76
2022/02/03 18:10:47;;;;;;;10.53;4.50;;;7.80;99.90;;;;;;1874499;76;21086;-77
2022/02/03 18:17:19;;;;;;;13.88;3.55;;;7.80;99.90;;;;;;1876826;76;21094;-76
2022/02/03 18:19:27;;;;;;;9.40;4.47;;;7.70;99.90;;;;;;1878346;76;21160;-76
2022/02/03 18:27:36;;;;;;;4.85;3.72;;;7.50;99.90;;;;;;1878411;76;21082;-76
2022/02/03 18:37:08;;;;;;;4.03;3.10;;;7.40;99.90;;;;;;1878373;76;21079;-76
2022/02/03 18:48:51;;;;;;;4.60;3.40;;;7.50;99.90;;;;;;1878283;76;21086;-76
2022/02/03 18:53:14;;;;;;;4.60;3.50;;;7.50;99.90;;;;;;1878320;76;21126;-77
2022/02/03 19:00:59;;;;;;;8.75;4.00;;;7.50;99.90;;;;;;1878523;76;21151;-74
2022/02/03 19:09:26;;;;;;;6.60;4.35;;;7.60;99.90;;;;;;1875116;76;21462;-74
2022/02/03 19:14:43;;;;;;;5.67;4.72;;;7.30;99.90;;;;;;1878428;76;21537;-73
2022/02/03 19:25:47;;;;;;;5.70;4.22;;;7.30;99.90;;;;;;1878280;76;21164;-75
2022/02/03 20:03:43;;;;;;;12.50;6.42;;;6.70;99.90;;;;;;1878976;76;21447;-76
2022/02/03 20:06:03;;;;;;;11.78;7.17;;;6.60;99.90;;;;;;1874964;76;21427;-76
2022/02/03 20:08:44;;;;;;;8.90;6.55;;;6.60;99.90;;;;;;1877310;76;21148;-77
2022/02/03 20:11:04;;;;;;;7.12;5.55;;;6.30;99.90;;;;;;1876708;76;21156;-77
2022/02/03 20:13:31;;;;;;;11.08;7.50;;;6.30;99.90;;;;;;1878802;76;21141;-76
2022/02/03 20:15:58;;;;;;;10.20;7.42;;;6.30;99.90;;;;;;1878702;76;21205;-77
2022/02/03 20:18:27;;;;;;;13.10;7.90;;;6.30;99.90;;;;;;1878907;76;21211;-75
2022/02/03 20:20:56;;;;;;;11.65;7.00;;;6.30;99.90;;;;;;1878777;76;21443;-77
2022/02/03 20:23:24;;;;;;;10.18;6.55;;;6.20;99.90;;;;;;1878893;76;21497;-77
2022/02/03 20:25:57;;;;;;;8.43;6.72;;;6.10;99.90;;;;;;1878836;76;21127;-77
2022/02/03 20:28:23;;;;;;;11.38;6.47;;;6.00;99.90;;;;;;1878443;76;21066;-77
2022/02/03 20:30:52;;;;;;;9.70;7.20;;;6.10;99.90;;;;;;1879088;76;21015;-78
2022/02/03 20:33:24;;;;;;;7.92;6.25;;;6.10;99.90;;;;;;1878991;76;21524;-76
2022/02/03 20:35:53;;;;;;;7.95;6.70;;;6.10;99.90;;;;;;1851308;75;21457;-75
2022/02/03 20:38:20;;;;;;;8.20;7.00;;;6.00;99.90;;;;;;1853087;75;21099;-76
2022/02/03 20:40:48;;;;;;;14.15;7.55;;;6.00;99.90;;;;;;1854224;75;21166;-76
2022/02/03 20:43:18;;;;;;;15.72;9.18;;;5.90;99.90;;;;;;1850022;75;21111;-77
2022/02/03 20:45:45;;;;;;;12.58;7.75;;;6.00;99.90;;;;;;1854423;75;21103;-75
2022/02/03 20:48:13;;;;;;;8.45;7.25;;;6.10;99.90;;;;;;1854542;75;21166;-77
2022/02/03 20:50:43;;;;;;;8.08;6.47;;;6.10;99.90;;;;;;1857707;77;21117;-78
2022/02/03 20:53:10;;;;;;;11.83;6.72;;;6.00;99.90;;;;;;1858690;77;21182;-79
2022/02/03 20:55:37;;;;;;;10.90;7.05;;;6.00;99.90;;;;;;1859242;77;21101;-80
2022/02/03 20:58:05;;;;;;;8.23;6.83;;;5.90;99.90;;;;;;1859282;76;21428;-80
2022/02/03 21:00:50;;;;;;;9.80;7.03;;;5.90;99.90;;;;;;1859283;76;21079;-79
2022/02/03 21:03:22;;;;;;;10.53;8.38;;;5.90;99.90;;;;;;1858561;76;21128;-81
2022/02/03 21:05:43;;;;;;;11.33;8.88;;;5.90;99.90;;;;;;1857461;77;21155;-75
2022/02/03 21:08:11;;;;;;;13.83;8.98;;;5.80;99.90;;;;;;1859206;77;21088;-77
2022/02/03 21:10:40;;;;;;;12.95;8.83;;;5.80;99.90;;;;;;1859302;76;21121;-76
2022/02/03 21:13:08;;;;;;;14.33;7.92;;;5.70;99.90;;;;;;1859349;77;21137;-77
2022/02/03 21:15:38;;;;;;;9.75;8.13;;;5.60;99.90;;;;;;1859173;76;21051;-79
2022/02/03 21:18:09;;;;;;;11.18;8.60;;;5.50;99.90;;;;;;1859298;77;21068;-79
2022/02/03 21:20:35;;;;;;;13.30;9.50;;;5.50;99.90;;;;;;1858776;76;21588;-76
2022/02/03 21:23:04;;;;;;;10.63;8.50;;;5.60;99.90;;;;;;1859368;77;21083;-79
2022/02/03 21:25:36;;;;;;;10.82;9.20;;;5.60;99.90;;;;;;1859273;76;21059;-78
2022/02/03 21:28:10;;;;;;;12.78;9.53;;;5.60;99.90;;;;;;1858883;77;21108;-79
2022/02/03 21:30:32;;;;;;;15.88;10.45;;;5.60;99.90;;;;;;1857192;77;21132;-78
2022/02/03 21:33:00;;;;;;;11.53;9.10;;;5.70;99.90;;;;;;1837827;77;21056;-80
2022/02/03 21:35:28;;;;;;;15.88;10.32;;;5.70;99.90;;;;;;1859511;76;21126;-78
2022/02/03 21:37:56;;;;;;;11.65;8.90;;;5.70;99.90;;;;;;1859343;76;21079;-76
2022/02/03 21:40:23;;;;;;;11.80;8.93;;;5.60;99.90;;;;;;1859279;76;21518;-77
2022/02/03 21:42:50;;;;;;;13.48;10.32;;;5.60;99.90;;;;;;1859215;77;21113;-77
2022/02/03 21:45:27;;;;;;;14.43;9.28;;;5.50;99.90;;;;;;1859240;77;21087;-77
2022/02/03 21:47:54;;;;;;;17.95;9.70;;;5.60;99.90;;;;;;1858683;77;21227;-76
2022/02/03 21:50:23;;;;;;;19.20;11.20;;;5.60;99.90;;;;;;1858665;76;21067;-76
2022/02/03 21:52:54;;;;;;;21.33;12.28;;;5.60;99.90;;;;;;1858721;77;21491;-76
2022/02/03 21:55:20;;;;;;;28.77;14.70;;;5.60;99.90;;;;;;1858395;77;21087;-75
2022/02/03 21:57:51;;;;;;;22.10;15.20;;;5.60;99.90;;;;;;1858543;77;21071;-73
2022/02/03 22:00:17;;;;;;;19.45;13.78;;;5.50;99.90;;;;;;1858285;77;21105;-75
2022/02/03 22:02:46;;;;;;;18.52;12.47;;;5.50;99.90;;;;;;1858624;77;21453;-76
2022/02/03 22:05:13;;;;;;;29.98;14.40;;;5.50;99.90;;;;;;1858968;76;21645;-73
2022/02/03 22:07:44;;;;;;;29.45;17.30;;;5.50;99.90;;;;;;1859061;77;21059;-75
2022/02/03 22:10:17;;;;;;;22.30;15.88;;;5.50;99.90;;;;;;1837535;77;21079;-75
2022/02/03 22:12:46;;;;;;;33.85;15.43;;;5.50;99.90;;;;;;1858721;75;21487;-73
2022/02/03 22:15:14;;;;;;;30.30;14.73;;;5.50;99.90;;;;;;1858611;77;21126;-73
2022/02/03 22:17:41;;;;;;;17.75;13.28;;;5.50;99.90;;;;;;1858538;76;21087;-73
2022/02/03 22:20:18;;;;;;;17.62;11.75;;;5.40;99.90;;;;;;1858751;76;21129;-74
2022/02/03 22:23:06;;;;;;;14.45;10.70;;;5.40;99.90;;;;;;1857566;76;21517;-74
2022/02/03 22:25:33;;;;;;;13.08;10.03;;;5.40;99.90;;;;;;1855391;76;21128;-75
2022/02/03 22:28:06;;;;;;;13.18;9.80;;;5.30;99.90;;;;;;1855874;76;21171;-74
2022/02/03 22:38:55;;;;;;;12.45;9.20;;;5.30;99.90;;;;;;1858442;77;21117;-74
2022/02/03 22:42:22;;;;;;;12.85;9.63;;;5.40;99.90;;;;;;1856268;76;21492;-74